createdAt,value
2022-09-12T00:00:39.270Z,5.15
2022-09-12T00:03:09.519Z,5.53
2022-09-12T00:05:45.702Z,5.00
2022-09-12T00:08:19.772Z,5.30
2022-09-12T00:10:49.450Z,5.38
2022-09-12T00:13:20.082Z,5.68
2022-09-12T00:15:50.488Z,5.07
2022-09-12T00:18:20.494Z,5.78
2022-09-12T00:20:49.511Z,5.38
2022-09-12T00:23:16.881Z,4.60
2022-09-12T00:25:46.743Z,5.22
2022-09-12T00:28:20.643Z,4.60
2022-09-12T00:30:49.582Z,5.50
2022-09-12T00:33:20.047Z,4.25
2022-09-12T00:35:54.272Z,5.60
2022-09-12T00:38:24.452Z,4.60
2022-09-12T00:40:51.634Z,4.47
2022-09-12T00:43:43.760Z,4.07
2022-09-12T00:46:44.686Z,4.43
2022-09-12T00:49:39.786Z,4.70
2022-09-12T00:52:53.318Z,4.70
2022-09-12T00:55:26.572Z,4.47
2022-09-12T00:58:09.624Z,4.15
2022-09-12T01:00:39.091Z,4.32
2022-09-12T01:03:20.718Z,4.32
2022-09-12T01:06:09.005Z,5.65
2022-09-12T01:08:43.183Z,4.15
2022-09-12T01:11:16.119Z,4.10
2022-09-12T01:13:50.082Z,4.35
2022-09-12T01:16:21.436Z,3.58
2022-09-12T01:18:52.747Z,3.70
2022-09-12T01:21:30.742Z,3.75
2022-09-12T01:24:49.674Z,3.75
2022-09-12T01:27:49.395Z,3.55
2022-09-12T01:30:45.649Z,3.40
2022-09-12T01:33:35.523Z,3.95
2022-09-12T01:36:43.865Z,4.88
2022-09-12T01:39:22.180Z,3.72
2022-09-12T01:42:18.924Z,4.68
2022-09-12T01:44:59.545Z,3.97
2022-09-12T01:47:47.434Z,4.43
2022-09-12T01:50:20.220Z,4.65
2022-09-12T01:53:02.582Z,3.30
2022-09-12T01:55:46.618Z,4.18
2022-09-12T01:58:21.044Z,3.85
2022-09-12T02:01:04.957Z,3.65
2022-09-12T02:03:42.391Z,4.22
2022-09-12T02:06:23.633Z,3.72
2022-09-12T02:08:56.343Z,3.65
2022-09-12T02:11:27.085Z,3.65
2022-09-12T02:14:01.191Z,4.15
2022-09-12T02:16:31.236Z,4.00
2022-09-12T02:19:08.944Z,4.20
2022-09-12T02:21:51.042Z,3.95
2022-09-12T02:24:21.397Z,3.97
2022-09-12T02:26:55.377Z,4.78
2022-09-12T02:29:23.068Z,5.60
2022-09-12T02:32:02.383Z,3.55
2022-09-12T02:34:54.895Z,5.38
2022-09-12T02:37:58.509Z,4.47
2022-09-12T02:40:26.201Z,4.60
2022-09-12T02:42:53.564Z,4.63
2022-09-12T02:45:26.092Z,5.05
2022-09-12T02:50:52.139Z,4.75
2022-09-12T02:53:37.105Z,4.68
2022-09-12T02:56:52.199Z,4.43
2022-09-12T02:59:29.010Z,5.18
2022-09-12T03:02:28.954Z,4.63
2022-09-12T03:05:17.304Z,5.18
2022-09-12T03:07:53.737Z,4.93
2022-09-12T03:10:42.125Z,5.60
2022-09-12T03:13:18.706Z,5.38
2022-09-12T03:16:23.572Z,4.68
2022-09-12T03:19:02.252Z,5.35
2022-09-12T03:21:57.853Z,5.25
2022-09-12T03:24:33.419Z,5.80
2022-09-12T03:27:04.812Z,5.43
2022-09-12T03:29:34.761Z,6.00
2022-09-12T03:32:09.836Z,5.18
2022-09-12T03:34:41.685Z,5.68
2022-09-12T03:37:09.267Z,5.18
2022-09-12T03:39:40.541Z,6.07
2022-09-12T03:42:07.869Z,5.70
2022-09-12T03:44:37.944Z,6.07
2022-09-12T03:47:11.429Z,5.88
2022-09-12T03:49:41.866Z,6.43
2022-09-12T03:52:14.903Z,5.38
2022-09-12T03:54:42.352Z,6.95
2022-09-12T03:57:26.656Z,5.95
2022-09-12T03:59:59.601Z,5.97
2022-09-12T04:02:32.463Z,6.40
2022-09-12T04:15:40.890Z,5.95
2022-09-12T04:18:17.619Z,6.20
2022-09-12T04:21:46.524Z,6.53
2022-09-12T04:24:14.069Z,6.07
2022-09-12T04:26:49.193Z,6.68
2022-09-12T04:29:23.168Z,5.32
2022-09-12T04:31:57.799Z,5.95
2022-09-12T04:34:25.067Z,5.57
2022-09-12T04:37:02.524Z,6.60
2022-09-12T04:39:32.540Z,5.65
2022-09-12T04:42:06.229Z,5.70
2022-09-12T04:44:33.352Z,5.03
2022-09-12T04:47:03.615Z,4.82
2022-09-12T04:49:33.174Z,5.10
2022-09-12T04:52:08.288Z,5.13
2022-09-12T04:54:38.226Z,4.90
2022-09-12T04:57:06.025Z,6.35
2022-09-12T04:59:33.312Z,5.32
2022-09-12T05:02:00.373Z,4.90
2022-09-12T05:04:32.599Z,5.47
2022-09-12T05:07:14.176Z,5.82
2022-09-12T05:09:51.068Z,5.03
2022-09-12T05:12:28.849Z,5.28
2022-09-12T05:15:10.294Z,6.20
2022-09-12T05:18:39.938Z,5.22
2022-09-12T05:21:12.570Z,5.80
2022-09-12T05:23:50.896Z,4.70
2022-09-12T05:26:29.464Z,5.70
2022-09-12T05:29:28.155Z,6.05
2022-09-12T05:31:56.858Z,5.38
2022-09-12T05:34:38.629Z,5.90
2022-09-12T05:37:52.023Z,5.10
2022-09-12T05:40:19.867Z,4.95
2022-09-12T05:42:50.659Z,5.20
2022-09-12T05:45:21.406Z,5.60
2022-09-12T05:47:55.670Z,5.00
2022-09-12T05:50:25.782Z,5.40
2022-09-12T05:52:57.839Z,5.70
2022-09-12T05:55:32.125Z,6.43
2022-09-12T05:58:20.173Z,5.65
2022-09-12T06:03:57.982Z,5.75
2022-09-12T06:06:29.696Z,4.93
2022-09-12T06:12:17.715Z,3.80
2022-09-12T06:14:57.570Z,4.60
2022-09-12T06:17:36.996Z,4.93
2022-09-12T06:20:16.778Z,4.38
2022-09-12T06:22:49.359Z,4.68
2022-09-12T06:25:16.720Z,5.50
2022-09-12T06:27:55.754Z,5.72
2022-09-12T06:34:13.647Z,4.95
2022-09-12T06:37:52.799Z,4.82
2022-09-12T06:40:25.550Z,5.38
2022-09-12T06:44:09.447Z,4.57
2022-09-12T06:46:52.299Z,4.30
2022-09-12T06:49:29.242Z,5.60
2022-09-12T06:52:14.721Z,4.82
2022-09-12T06:54:42.552Z,5.30
2022-09-12T06:57:09.723Z,4.30
2022-09-12T06:59:36.910Z,4.65
2022-09-12T07:02:04.028Z,4.38
2022-09-12T07:04:33.801Z,5.07
2022-09-12T07:07:01.419Z,4.60
2022-09-12T07:09:31.106Z,4.55
2022-09-12T07:11:58.222Z,5.13
2022-09-12T07:14:28.650Z,4.90
2022-09-12T07:16:55.758Z,5.47
2022-09-12T07:19:23.282Z,5.25
2022-09-12T07:21:56.604Z,4.70
2022-09-12T07:24:30.370Z,4.15
2022-09-12T07:26:57.599Z,4.38
2022-09-12T07:29:36.376Z,3.78
2022-09-12T07:32:06.063Z,4.00
2022-09-12T07:34:34.360Z,3.92
2022-09-12T07:37:01.826Z,3.88
2022-09-12T07:39:29.104Z,3.90
2022-09-12T07:41:56.209Z,3.45
2022-09-12T07:44:25.835Z,4.07
2022-09-12T07:46:52.927Z,4.28
2022-09-12T07:49:20.154Z,3.47
2022-09-12T07:51:47.221Z,3.83
2022-09-12T07:54:16.011Z,4.20
2022-09-12T07:56:43.198Z,4.53
2022-09-12T07:59:11.463Z,5.25
2022-09-12T08:01:46.987Z,4.45
2022-09-12T08:04:14.151Z,3.58
2022-09-12T08:06:41.423Z,5.22
2022-09-12T08:09:09.002Z,4.53
2022-09-12T08:11:36.344Z,3.50
2022-09-12T08:14:05.839Z,3.78
2022-09-12T08:16:33.787Z,3.78
2022-09-12T08:19:02.282Z,4.30
2022-09-12T08:21:34.740Z,4.28
2022-09-12T08:24:07.042Z,4.00
2022-09-12T08:26:35.190Z,4.38
2022-09-12T08:29:02.976Z,4.40
2022-09-12T08:31:36.559Z,5.28
2022-09-12T08:34:05.688Z,5.20
2022-09-12T08:36:33.862Z,4.40
2022-09-12T08:39:03.572Z,6.20
2022-09-12T08:41:32.022Z,5.57
2022-09-12T08:44:20.292Z,5.47
2022-09-12T08:47:11.803Z,5.15
2022-09-12T08:49:51.675Z,6.35
2022-09-12T08:52:42.749Z,6.05
2022-09-12T08:55:28.697Z,5.13
2022-09-12T08:57:55.695Z,5.78
2022-09-12T09:00:22.955Z,4.78
2022-09-12T09:03:07.403Z,5.55
2022-09-12T09:05:49.656Z,5.90
2022-09-12T09:08:22.891Z,5.20
2022-09-12T09:11:08.296Z,6.55
2022-09-12T09:14:05.470Z,6.57
2022-09-12T09:16:32.694Z,6.25
2022-09-12T09:19:04.647Z,6.53
2022-09-12T09:21:41.156Z,5.88
2022-09-12T09:24:13.836Z,6.20
2022-09-12T09:26:51.094Z,5.88
2022-09-12T09:29:22.546Z,5.90
2022-09-12T09:31:53.234Z,6.07
2022-09-12T09:34:24.471Z,6.20
2022-09-12T09:37:19.223Z,6.80
2022-09-12T09:40:20.960Z,6.13
2022-09-12T09:43:11.444Z,6.07
2022-09-12T09:45:43.430Z,5.80
2022-09-12T09:48:24.622Z,5.97
2022-09-12T09:51:11.530Z,6.40
2022-09-12T09:54:07.265Z,6.05
2022-09-12T09:56:43.120Z,6.80
2022-09-12T09:59:35.412Z,5.72
2022-09-12T10:02:14.369Z,6.50
2022-09-12T10:04:55.330Z,6.28
2022-09-12T10:07:24.750Z,7.13
2022-09-12T10:10:16.840Z,7.47
2022-09-12T10:12:58.712Z,7.32
2022-09-12T10:15:55.767Z,7.38
2022-09-12T10:19:03.568Z,8.15
2022-09-12T10:22:19.455Z,8.13
2022-09-12T10:24:56.523Z,8.50
2022-09-12T10:27:34.952Z,7.95
2022-09-12T10:30:17.899Z,8.93
2022-09-12T10:33:28.887Z,10.47
2022-09-12T10:36:07.297Z,10.52
2022-09-12T10:38:37.043Z,9.38
2022-09-12T10:41:07.398Z,10.60
2022-09-12T10:43:34.527Z,10.00
2022-09-12T10:46:19.883Z,10.68
2022-09-12T10:48:52.957Z,9.82
2022-09-12T10:51:25.902Z,9.80
2022-09-12T10:53:56.685Z,10.57
2022-09-12T10:56:58.420Z,10.13
2022-09-12T10:59:40.473Z,10.38
2022-09-12T11:02:30.024Z,11.30
2022-09-12T11:05:09.863Z,10.43
2022-09-12T11:08:23.086Z,12.18
2022-09-12T11:11:18.691Z,11.25
2022-09-12T11:14:09.384Z,12.98
2022-09-12T11:16:42.836Z,12.88
2022-09-12T11:19:38.448Z,11.60
2022-09-12T11:22:15.249Z,13.23
2022-09-12T11:25:21.219Z,12.43
2022-09-12T11:28:01.245Z,11.35
2022-09-12T11:30:47.935Z,10.65
2022-09-12T11:33:43.119Z,11.80
2022-09-12T11:36:37.446Z,12.43
2022-09-12T11:39:22.198Z,12.27
2022-09-12T11:42:05.077Z,14.35
2022-09-12T11:44:46.365Z,13.30
2022-09-12T11:47:16.575Z,11.90
2022-09-12T11:49:51.845Z,12.00
2022-09-12T11:52:20.097Z,13.20
2022-09-12T11:55:04.143Z,14.18
2022-09-12T11:57:41.718Z,13.73
2022-09-12T12:00:59.420Z,14.52
2022-09-12T12:03:55.694Z,12.23
2022-09-12T12:06:49.678Z,13.48
2022-09-12T12:09:42.661Z,12.88
2022-09-12T12:12:21.747Z,13.65
2022-09-12T12:14:51.737Z,14.00
2022-09-12T12:17:27.544Z,14.23
2022-09-12T12:20:06.696Z,13.90
2022-09-12T12:22:56.549Z,13.15
2022-09-12T12:25:52.644Z,12.10
2022-09-12T12:28:43.856Z,12.00
2022-09-12T12:31:11.542Z,14.20
2022-09-12T12:33:38.781Z,13.00
2022-09-12T12:36:10.569Z,13.52
2022-09-12T12:38:45.779Z,12.98
2022-09-12T12:41:21.378Z,13.63
2022-09-12T12:43:53.315Z,11.32
2022-09-12T12:46:32.946Z,11.43
2022-09-12T12:49:00.208Z,11.10
2022-09-12T12:51:36.013Z,13.18
2022-09-12T12:54:30.856Z,12.95
2022-09-12T12:57:13.401Z,12.65
2022-09-12T13:00:00.331Z,11.17
2022-09-12T13:02:32.882Z,10.60
2022-09-12T13:05:03.121Z,11.37
2022-09-12T13:07:42.776Z,11.45
2022-09-12T13:10:24.163Z,11.32
2022-09-12T13:12:52.338Z,11.75
2022-09-12T13:15:39.222Z,10.77
2022-09-12T13:18:17.422Z,10.10
2022-09-12T13:20:51.130Z,10.60
2022-09-12T13:23:45.392Z,10.90
2022-09-12T13:26:24.215Z,9.93
2022-09-12T13:29:11.860Z,9.45
2022-09-12T13:31:45.275Z,9.02
2022-09-12T13:34:25.557Z,10.07
2022-09-12T13:37:23.298Z,8.23
2022-09-12T13:40:12.066Z,8.07
2022-09-12T13:42:56.898Z,7.72
2022-09-12T13:45:44.815Z,7.93
2022-09-12T13:48:45.583Z,8.48
2022-09-12T13:51:40.295Z,7.47
2022-09-12T13:54:29.323Z,6.90
2022-09-12T13:56:57.208Z,7.95
2022-09-12T13:59:25.430Z,6.85
2022-09-12T14:01:55.205Z,7.90
2022-09-12T14:04:48.583Z,8.20
2022-09-12T14:07:20.414Z,8.35
2022-09-12T14:09:56.193Z,6.93
2022-09-12T14:12:32.248Z,5.85
2022-09-12T14:15:28.493Z,7.30
2022-09-12T14:18:01.726Z,7.13
2022-09-12T14:20:37.215Z,7.03
2022-09-12T14:23:29.441Z,6.15
2022-09-12T14:26:02.855Z,6.88
2022-09-12T14:28:31.522Z,6.55
2022-09-12T14:31:08.265Z,7.43
2022-09-12T14:33:57.608Z,5.95
2022-09-12T14:36:30.543Z,5.68
2022-09-12T14:39:06.508Z,5.85
2022-09-12T14:41:38.508Z,6.10
2022-09-12T14:44:10.652Z,5.30
2022-09-12T14:46:42.959Z,6.05
2022-09-12T14:49:32.569Z,5.47
2022-09-12T14:52:03.049Z,6.03
2022-09-12T14:54:34.030Z,5.68
2022-09-12T14:57:04.322Z,4.93
2022-09-12T14:59:39.784Z,5.97
2022-09-12T15:02:22.101Z,5.15
2022-09-12T15:05:14.998Z,5.07
2022-09-12T15:07:50.918Z,5.03
2022-09-12T15:10:37.808Z,5.65
2022-09-12T15:13:14.465Z,4.32
2022-09-12T15:15:44.728Z,5.03
2022-09-12T15:18:12.291Z,4.50
2022-09-12T15:20:41.229Z,4.70
2022-09-12T15:23:16.250Z,4.60
2022-09-12T15:25:43.639Z,4.82
2022-09-12T15:28:31.199Z,4.13
2022-09-12T15:31:05.918Z,4.70
2022-09-12T15:33:33.249Z,4.05
2022-09-12T15:36:00.706Z,4.30
2022-09-12T15:38:28.142Z,3.78
2022-09-12T15:40:55.981Z,3.75
2022-09-12T15:43:23.988Z,4.57
2022-09-12T15:45:52.419Z,4.55
2022-09-12T15:48:21.218Z,4.70
2022-09-12T15:50:48.620Z,3.83
2022-09-12T15:53:17.225Z,3.45
2022-09-12T15:55:44.765Z,4.60
2022-09-12T15:58:12.121Z,3.38
2022-09-12T16:00:39.782Z,4.25
2022-09-12T16:03:07.127Z,4.22
2022-09-12T16:05:34.533Z,3.90
2022-09-12T16:08:02.031Z,4.97
2022-09-12T16:10:33.091Z,5.43
2022-09-12T16:13:04.567Z,4.35
2022-09-12T16:15:34.316Z,4.53
2022-09-12T16:18:05.315Z,4.15
2022-09-12T16:20:32.871Z,5.07
2022-09-12T16:23:00.125Z,5.65
2022-09-12T16:25:29.351Z,4.53
2022-09-12T16:27:59.325Z,4.22
2022-09-12T16:30:39.736Z,4.30
2022-09-12T16:33:50.486Z,3.72
2022-09-12T16:36:26.368Z,4.03
2022-09-12T16:38:56.809Z,4.40
2022-09-12T16:41:29.790Z,4.30
2022-09-12T16:43:57.132Z,4.63
2022-09-12T16:46:31.618Z,4.35
2022-09-12T16:49:09.299Z,4.25
2022-09-12T16:51:37.055Z,4.65
2022-09-12T16:54:05.187Z,3.33
2022-09-12T16:56:32.723Z,3.65
2022-09-12T16:59:39.314Z,3.78
2022-09-12T17:03:24.004Z,4.65
2022-09-12T17:06:09.383Z,2.67
2022-09-12T17:09:19.072Z,3.95
2022-09-12T17:11:59.217Z,2.78
2022-09-12T17:14:52.896Z,3.75
2022-09-12T17:17:23.452Z,4.03
2022-09-12T17:19:54.293Z,4.00
2022-09-12T17:26:00.227Z,4.53
2022-09-12T17:39:22.571Z,3.85
2022-09-12T17:42:00.228Z,4.20
2022-09-12T17:47:50.694Z,3.42
2022-09-12T17:50:31.466Z,3.28
2022-09-12T17:53:00.771Z,3.65
2022-09-12T17:55:32.659Z,3.70
2022-09-12T17:58:13.818Z,3.60
2022-09-12T18:04:21.974Z,3.15
2022-09-12T18:07:12.466Z,2.97
2022-09-12T18:10:28.842Z,3.17
2022-09-12T18:16:19.170Z,3.47
2022-09-12T18:18:52.871Z,3.00
2022-09-12T18:21:20.223Z,4.15
2022-09-12T18:23:47.810Z,3.00
2022-09-12T18:26:19.293Z,3.75
2022-09-12T18:28:50.481Z,4.47
2022-09-12T18:31:21.299Z,3.90
2022-09-12T18:33:49.268Z,3.70
2022-09-12T18:36:19.021Z,3.60
2022-09-12T18:38:48.234Z,3.35
2022-09-12T18:41:18.440Z,3.40
2022-09-12T18:43:49.112Z,3.72
2022-09-12T18:46:19.159Z,3.03
2022-09-12T18:48:46.955Z,3.55
2022-09-12T18:51:20.211Z,4.05
2022-09-12T18:53:56.488Z,3.53
2022-09-12T18:56:26.621Z,3.92
2022-09-12T18:58:58.203Z,3.42
2022-09-12T19:01:31.520Z,4.25
2022-09-12T19:04:01.127Z,3.40
2022-09-12T19:06:39.783Z,3.00
2022-09-12T19:09:09.187Z,3.35
2022-09-12T19:11:49.465Z,3.97
2022-09-12T19:14:26.313Z,4.53
2022-09-12T19:16:54.125Z,3.75
2022-09-12T19:19:21.761Z,4.10
2022-09-12T19:21:48.980Z,3.42
2022-09-12T19:24:17.364Z,3.78
2022-09-12T19:26:47.450Z,4.05
2022-09-12T19:29:17.053Z,4.55
2022-09-12T19:31:45.324Z,4.53
2022-09-12T19:34:13.622Z,3.92
2022-09-12T19:36:46.002Z,4.70
2022-09-12T19:39:19.803Z,4.00
2022-09-12T19:41:50.942Z,3.85
2022-09-12T19:44:20.773Z,4.10
2022-09-12T19:47:06.040Z,3.67
2022-09-12T19:49:36.558Z,4.32
2022-09-12T19:52:03.812Z,3.70
2022-09-12T19:54:45.525Z,3.42
2022-09-12T19:57:13.493Z,4.88
2022-09-12T19:59:46.650Z,3.60
2022-09-12T20:02:17.050Z,4.38
2022-09-12T20:04:45.553Z,5.90
2022-09-12T20:07:13.264Z,4.45
2022-09-12T20:09:43.139Z,3.72
2022-09-12T20:12:14.608Z,3.97
2022-09-12T20:14:45.022Z,4.13
2022-09-12T20:17:12.573Z,3.83
2022-09-12T20:19:39.954Z,3.80
2022-09-12T20:22:07.587Z,4.30
2022-09-12T20:24:34.742Z,3.38
2022-09-12T20:27:01.729Z,4.40
2022-09-12T20:29:28.772Z,3.75
2022-09-12T20:31:55.838Z,3.72
2022-09-12T20:34:22.887Z,4.38
2022-09-12T20:36:50.009Z,3.97
2022-09-12T20:39:19.924Z,4.28
2022-09-12T20:41:50.015Z,4.13
2022-09-12T20:44:17.337Z,4.80
2022-09-12T20:46:45.126Z,3.67
2022-09-12T20:49:12.128Z,3.55
2022-09-12T20:51:39.131Z,4.10
2022-09-12T20:54:07.283Z,4.07
2022-09-12T20:56:36.332Z,4.07
2022-09-12T20:59:05.074Z,4.65
2022-09-12T21:01:32.350Z,5.35
2022-09-12T21:04:01.175Z,4.85
2022-09-12T21:06:28.593Z,3.80
2022-09-12T21:08:59.940Z,4.18
2022-09-12T21:11:28.471Z,5.35
2022-09-12T21:13:55.725Z,5.07
2022-09-12T21:16:23.763Z,5.30
2022-09-12T21:19:08.854Z,4.57
2022-09-12T21:21:36.381Z,5.22
2022-09-12T21:24:03.902Z,4.22
2022-09-12T21:26:33.899Z,3.88
2022-09-12T21:29:00.973Z,4.40
2022-09-12T21:31:28.075Z,4.78
2022-09-12T21:33:55.151Z,4.57
2022-09-12T21:36:22.313Z,5.00
2022-09-12T21:38:49.973Z,4.40
2022-09-12T21:41:17.390Z,3.97
2022-09-12T21:43:44.564Z,4.65
2022-09-12T21:46:11.885Z,5.43
2022-09-12T21:48:39.073Z,5.95
2022-09-12T21:51:06.756Z,4.82
2022-09-12T21:53:33.787Z,4.65
2022-09-12T21:56:03.462Z,4.50
2022-09-12T21:58:30.413Z,5.28
2022-09-12T22:00:57.623Z,5.00
2022-09-12T22:03:26.171Z,4.72
2022-09-12T22:06:01.891Z,4.78
2022-09-12T22:08:30.380Z,4.82
2022-09-12T22:11:02.277Z,4.30
2022-09-12T22:13:33.850Z,5.40
2022-09-12T22:16:03.124Z,4.85
2022-09-12T22:18:33.609Z,5.35
2022-09-12T22:21:01.703Z,5.32
2022-09-12T22:23:47.257Z,4.85
2022-09-12T22:26:14.668Z,5.18
2022-09-12T22:28:43.041Z,5.43
2022-09-12T22:31:12.219Z,4.85
2022-09-12T22:33:39.850Z,4.40
2022-09-12T22:36:08.070Z,4.38
2022-09-12T22:38:35.081Z,4.50
2022-09-12T22:41:07.469Z,5.35
2022-09-12T22:43:35.433Z,5.20
2022-09-12T22:46:06.621Z,4.22
2022-09-12T22:48:34.177Z,4.47
2022-09-12T22:51:03.259Z,5.07
2022-09-12T22:53:30.401Z,4.80
2022-09-12T22:55:57.474Z,5.40
2022-09-12T22:58:24.588Z,4.88
2022-09-12T23:00:52.824Z,5.63
2022-09-12T23:03:21.047Z,4.47
2022-09-12T23:05:48.770Z,4.43
2022-09-12T23:08:20.033Z,3.47
2022-09-12T23:10:47.268Z,4.90
2022-09-12T23:13:14.568Z,4.22
2022-09-12T23:15:41.881Z,4.50
2022-09-12T23:18:09.078Z,3.90
2022-09-12T23:20:36.286Z,4.72
2022-09-12T23:23:03.371Z,4.90
2022-09-12T23:25:31.102Z,4.57
2022-09-12T23:27:58.996Z,4.70
2022-09-12T23:30:26.236Z,4.97
2022-09-12T23:32:53.563Z,4.90
2022-09-12T23:35:22.610Z,5.57
2022-09-12T23:37:50.226Z,4.75
2022-09-12T23:40:18.727Z,4.43
2022-09-12T23:42:48.025Z,5.57
2022-09-12T23:45:15.887Z,5.25
2022-09-12T23:47:43.614Z,4.40
2022-09-12T23:50:11.759Z,5.32
2022-09-12T23:52:47.453Z,6.07
2022-09-12T23:55:14.946Z,6.28
2022-09-12T23:57:42.227Z,5.63
